Time;durP1;ratioP1;P1;durP2;ratioP2;P2;SDS_P1;SDS_P2;PMS_P1;PMS_P2;Temp;Humidity;BMP_temperature;BMP_pressure;BME280_temperature;BME280_humidity;BME280_pressure;Samples;Min_cycle;Max_cycle;Signal;HPM_P1;HPM_P2
2023/02/17 00:00:10;;;;;;;19.53;18.93;;;21.50;49.50;;;;;;5072306;28;20467;-61
2023/02/17 00:02:37;;;;;;;20.93;20.03;;;21.50;49.60;;;;;;5073134;28;20475;-62
2023/02/17 00:05:04;;;;;;;20.83;20.13;;;21.40;49.60;;;;;;5070211;28;20539;-63
2023/02/17 00:07:32;;;;;;;20.67;19.87;;;21.40;49.70;;;;;;5052715;28;20440;-63
2023/02/17 00:10:00;;;;;;;21.70;21.00;;;21.40;49.70;;;;;;5053946;28;20474;-62
2023/02/17 00:12:27;;;;;;;21.57;20.83;;;21.30;49.70;;;;;;5052573;28;20804;-61
2023/02/17 00:14:54;;;;;;;22.33;21.53;;;21.30;49.80;;;;;;5066764;28;20944;-63
2023/02/17 00:17:20;;;;;;;22.20;21.30;;;21.30;49.80;;;;;;5072312;28;20483;-63
2023/02/17 00:19:47;;;;;;;21.40;20.60;;;21.30;49.90;;;;;;5072207;28;20455;-62
2023/02/17 00:22:14;;;;;;;21.37;20.67;;;21.20;49.90;;;;;;5072251;28;20550;-62
2023/02/17 00:24:42;;;;;;;20.70;20.00;;;21.20;50.00;;;;;;5063795;28;20508;-60
2023/02/17 00:27:11;;;;;;;21.90;21.20;;;21.20;50.00;;;;;;5053033;28;20440;-63
2023/02/17 00:29:39;;;;;;;21.53;20.73;;;21.20;50.10;;;;;;5052305;28;20499;-62
2023/02/17 00:32:05;;;;;;;21.93;21.13;;;21.20;50.10;;;;;;5052122;28;20874;-62
2023/02/17 00:34:32;;;;;;;21.67;20.87;;;21.10;50.60;;;;;;5052460;28;20451;-62
2023/02/17 00:36:59;;;;;;;21.77;20.60;;;21.10;50.20;;;;;;5052185;28;20833;-63
2023/02/17 00:39:26;;;;;;;20.50;19.80;;;21.10;50.20;;;;;;5052152;28;20472;-63
2023/02/17 00:41:54;;;;;;;20.87;20.17;;;21.10;50.30;;;;;;5052059;28;20538;-62
2023/02/17 00:44:23;;;;;;;21.67;20.87;;;21.00;50.20;;;;;;5056103;28;20444;-62
2023/02/17 00:46:51;;;;;;;21.03;20.33;;;21.00;50.30;;;;;;5065241;28;20466;-61
2023/02/17 00:49:20;;;;;;;20.73;19.93;;;21.00;50.40;;;;;;5071636;28;21042;-61
2023/02/17 00:51:47;;;;;;;21.70;20.90;;;20.90;50.40;;;;;;5071858;28;20522;-60
2023/02/17 00:54:15;;;;;;;21.77;20.87;;;20.90;50.40;;;;;;5063542;28;20444;-60
2023/02/17 00:56:42;;;;;;;21.30;20.60;;;20.90;50.50;;;;;;5051724;28;20483;-57
2023/02/17 00:59:11;;;;;;;20.67;20.00;;;20.90;50.50;;;;;;5051598;28;20468;-60
2023/02/17 01:01:39;;;;;;;20.10;19.50;;;20.90;50.60;;;;;;5052002;28;20482;-61
2023/02/17 01:04:06;;;;;;;25.67;24.87;;;20.80;50.50;;;;;;5072108;28;20443;-58
2023/02/17 01:06:35;;;;;;;26.43;25.53;;;20.80;50.60;;;;;;5071714;28;20441;-56
2023/02/17 01:09:02;;;;;;;20.83;19.83;;;20.80;50.60;;;;;;5071513;28;20521;-57
2023/02/17 01:11:31;;;;;;;19.70;19.10;;;20.80;50.70;;;;;;5071577;28;20446;-62
2023/02/17 01:13:58;;;;;;;20.70;19.90;;;20.80;50.70;;;;;;5052376;28;20819;-59
2023/02/17 01:16:29;;;;;;;21.10;20.30;;;20.80;50.70;;;;;;5051482;28;20447;-59
2023/02/17 01:18:56;;;;;;;20.37;19.67;;;20.80;50.80;;;;;;5051384;28;20472;-60
2023/02/17 01:21:25;;;;;;;19.83;19.23;;;20.70;50.80;;;;;;5062883;28;20894;-60
2023/02/17 01:23:53;;;;;;;22.20;21.40;;;20.70;50.80;;;;;;5071918;28;20538;-60
2023/02/17 01:26:23;;;;;;;20.23;19.63;;;20.70;50.90;;;;;;5072080;28;20810;-58
2023/02/17 01:28:52;;;;;;;20.83;20.13;;;20.70;51.00;;;;;;5071257;28;20474;-59
2023/02/17 01:31:20;;;;;;;19.83;19.17;;;20.70;51.00;;;;;;5061028;28;21024;-60
2023/02/17 01:33:49;;;;;;;20.53;19.83;;;20.60;51.00;;;;;;5051658;28;20443;-61
2023/02/17 01:36:18;;;;;;;25.50;24.60;;;20.60;51.00;;;;;;5051372;28;20890;-60
2023/02/17 01:38:46;;;;;;;24.80;24.00;;;20.60;51.10;;;;;;5051461;28;20483;-60
2023/02/17 01:41:15;;;;;;;23.50;22.70;;;20.60;51.10;;;;;;5051822;28;20444;-60
2023/02/17 01:43:42;;;;;;;25.03;24.23;;;20.60;51.20;;;;;;5051625;28;20824;-61
2023/02/17 01:46:09;;;;;;;24.40;23.60;;;20.60;51.20;;;;;;5054435;28;20534;-63
2023/02/17 01:48:38;;;;;;;23.10;22.30;;;20.60;51.30;;;;;;5055099;28;20464;-62
2023/02/17 01:51:10;;;;;;;24.00;23.30;;;20.60;51.30;;;;;;5063008;28;20447;-62
2023/02/17 01:53:41;;;;;;;24.23;23.43;;;20.50;51.20;;;;;;5075194;28;20447;-60
2023/02/17 01:56:09;;;;;;;24.33;23.53;;;20.50;51.30;;;;;;5075377;28;20797;-62
2023/02/17 01:58:38;;;;;;;24.00;23.30;;;20.50;51.30;;;;;;5075060;28;20855;-61
2023/02/17 02:01:06;;;;;;;25.60;24.70;;;20.50;51.40;;;;;;5069602;28;20534;-61
2023/02/17 02:03:36;;;;;;;22.83;22.13;;;20.50;51.40;;;;;;5055255;28;20440;-58
2023/02/17 02:06:07;;;;;;;24.00;23.20;;;20.50;51.40;;;;;;5055195;28;20454;-62
2023/02/17 02:08:41;;;;;;;24.60;23.80;;;20.50;51.50;;;;;;5055070;28;20551;-63
2023/02/17 02:11:08;;;;;;;22.27;21.57;;;20.40;51.40;;;;;;5063204;28;20450;-62
2023/02/17 02:13:35;;;;;;;20.60;19.90;;;20.50;51.60;;;;;;5074976;28;20443;-63
2023/02/17 02:16:10;;;;;;;20.00;19.37;;;20.40;51.60;;;;;;5074881;28;20471;-59
2023/02/17 02:18:49;;;;;;;20.60;19.90;;;20.40;51.60;;;;;;5074659;28;21304;-61
2023/02/17 02:21:44;;;;;;;19.70;19.10;;;20.40;51.60;;;;;;5065138;28;20458;-62
2023/02/17 02:24:21;;;;;;;21.23;20.53;;;20.40;51.70;;;;;;5054944;28;20443;-61
2023/02/17 02:27:31;;;;;;;19.60;19.00;;;20.30;51.60;;;;;;5056091;28;20944;-63
2023/02/17 02:30:18;;;;;;;20.83;20.13;;;20.30;51.70;;;;;;5049018;28;20826;-62
2023/02/17 02:33:05;;;;;;;20.50;19.83;;;20.30;51.80;;;;;;5034723;28;20445;-60
2023/02/17 02:35:41;;;;;;;20.50;19.90;;;20.30;51.90;;;;;;5034475;28;20897;-62
2023/02/17 02:38:14;;;;;;;20.43;19.73;;;20.30;51.90;;;;;;5034244;28;20480;-59
2023/02/17 02:40:44;;;;;;;21.00;20.30;;;20.30;52.00;;;;;;5042581;28;20773;-60
2023/02/17 02:43:13;;;;;;;20.00;19.40;;;20.30;52.00;;;;;;5074465;28;20508;-60
2023/02/17 02:45:39;;;;;;;20.03;19.33;;;20.20;52.00;;;;;;5074400;28;20440;-60
2023/02/17 02:48:08;;;;;;;20.47;19.83;;;20.30;52.10;;;;;;5074027;28;20482;-58
2023/02/17 02:50:57;;;;;;;20.10;19.50;;;20.30;52.10;;;;;;5071107;28;20841;-59
2023/02/17 02:53:45;;;;;;;19.33;18.70;;;20.30;52.10;;;;;;5054400;28;20531;-61
2023/02/17 02:56:22;;;;;;;21.40;20.70;;;20.20;52.10;;;;;;5053842;28;20448;-61
2023/02/17 02:58:56;;;;;;;20.27;19.60;;;20.20;52.10;;;;;;5053702;28;21088;-60
2023/02/17 03:01:34;;;;;;;20.20;19.60;;;20.20;52.20;;;;;;5053896;28;20448;-60
2023/02/17 03:04:10;;;;;;;20.87;20.17;;;20.20;52.20;;;;;;5054169;28;20443;-59
2023/02/17 03:06:42;;;;;;;21.03;20.33;;;20.20;52.20;;;;;;5053921;28;20452;-59
2023/02/17 03:09:13;;;;;;;20.97;20.27;;;20.20;52.30;;;;;;5057785;28;20948;-59
2023/02/17 03:11:41;;;;;;;21.27;20.50;;;20.20;52.30;;;;;;5073688;28;20439;-59
2023/02/17 03:14:11;;;;;;;20.90;20.30;;;20.10;52.30;;;;;;5073691;28;20457;-59
2023/02/17 03:16:39;;;;;;;21.60;20.90;;;20.10;52.30;;;;;;5073675;28;20528;-59
2023/02/17 03:19:08;;;;;;;21.30;20.60;;;20.10;52.30;;;;;;5069513;28;20480;-61
2023/02/17 03:21:38;;;;;;;20.20;19.60;;;20.10;52.40;;;;;;5053415;28;20448;-62
2023/02/17 03:24:06;;;;;;;20.20;19.60;;;20.10;52.40;;;;;;5053473;28;20448;-59
2023/02/17 03:26:33;;;;;;;19.93;19.33;;;20.10;52.40;;;;;;5053634;28;20961;-63
2023/02/17 03:28:59;;;;;;;21.20;20.50;;;20.10;52.40;;;;;;5055194;28;21090;-63
2023/02/17 03:31:26;;;;;;;19.80;19.20;;;20.10;52.40;;;;;;5073292;28;20439;-63
2023/02/17 03:33:53;;;;;;;20.90;20.20;;;20.10;52.40;;;;;;5073325;28;20443;-63
2023/02/17 03:36:21;;;;;;;21.73;21.03;;;20.10;52.50;;;;;;5073303;28;20439;-63
2023/02/17 03:38:48;;;;;;;21.50;20.80;;;20.10;52.40;;;;;;5058179;28;20480;-63
2023/02/17 03:41:15;;;;;;;20.57;19.97;;;20.10;52.50;;;;;;5053267;28;20444;-63
2023/02/17 03:43:42;;;;;;;20.00;19.40;;;20.10;52.50;;;;;;5053179;28;20543;-63
2023/02/17 03:46:11;;;;;;;22.13;21.23;;;20.10;52.50;;;;;;5053127;28;20535;-63
2023/02/17 03:48:38;;;;;;;20.83;20.13;;;20.10;52.50;;;;;;5065482;28;21071;-63
2023/02/17 03:51:11;;;;;;;20.10;19.50;;;20.10;52.60;;;;;;5072851;28;20444;-63
2023/02/17 03:53:39;;;;;;;20.20;19.60;;;20.00;52.50;;;;;;5072912;28;20473;-62
2023/02/17 03:56:06;;;;;;;21.00;20.20;;;20.10;52.70;;;;;;5072967;28;20447;-62
2023/02/17 03:58:33;;;;;;;20.10;19.50;;;20.10;52.60;;;;;;5060715;28;20490;-62
2023/02/17 04:01:01;;;;;;;21.10;20.40;;;20.00;52.60;;;;;;5052561;28;20875;-62
2023/02/17 04:03:27;;;;;;;20.90;20.20;;;20.10;52.70;;;;;;5052654;28;20444;-63
2023/02/17 04:05:54;;;;;;;21.37;20.67;;;20.00;52.70;;;;;;5052908;28;20450;-62
2023/02/17 04:08:22;;;;;;;20.07;19.47;;;20.00;52.70;;;;;;5061387;28;21002;-59
2023/02/17 04:10:53;;;;;;;20.03;19.43;;;20.00;52.70;;;;;;5072162;28;20443;-60
2023/02/17 04:13:19;;;;;;;21.63;20.20;;;20.00;52.70;;;;;;5072497;28;21022;-62
2023/02/17 04:15:47;;;;;;;20.87;20.17;;;20.00;52.80;;;;;;5069981;28;20531;-60
2023/02/17 04:18:14;;;;;;;20.80;20.10;;;20.00;52.80;;;;;;5052496;28;20486;-62
2023/02/17 04:20:41;;;;;;;21.37;20.57;;;20.00;52.90;;;;;;5052331;28;20436;-61
2023/02/17 04:23:08;;;;;;;21.17;20.50;;;20.00;52.90;;;;;;5052626;28;20448;-61
2023/02/17 04:25:35;;;;;;;20.23;19.63;;;20.00;52.90;;;;;;5052154;28;20455;-62
2023/02/17 04:28:03;;;;;;;20.13;19.53;;;20.00;52.90;;;;;;5052212;28;20483;-61
2023/02/17 04:30:30;;;;;;;20.43;19.80;;;19.90;53.00;;;;;;5052260;28;20996;-61
2023/02/17 04:32:57;;;;;;;20.13;19.53;;;19.90;53.00;;;;;;5054679;28;20970;-61
2023/02/17 04:35:24;;;;;;;20.90;20.13;;;19.90;53.20;;;;;;5053741;28;20968;-61
2023/02/17 04:37:51;;;;;;;20.10;19.50;;;19.80;53.60;;;;;;5053926;28;20977;-61
2023/02/17 04:40:19;;;;;;;19.53;18.93;;;19.80;53.80;;;;;;5056012;28;20467;-60
2023/02/17 04:42:46;;;;;;;19.80;19.20;;;19.80;54.00;;;;;;5056342;28;20506;-56
2023/02/17 04:45:14;;;;;;;20.00;19.30;;;19.80;54.00;;;;;;5063714;28;20944;-60
2023/02/17 04:47:41;;;;;;;19.30;18.70;;;19.70;54.00;;;;;;5075989;28;20446;-60
2023/02/17 04:50:10;;;;;;;20.33;19.37;;;19.70;54.10;;;;;;5075928;28;20554;-58
2023/02/17 04:52:37;;;;;;;20.87;20.27;;;19.70;54.10;;;;;;5077192;28;20827;-59
2023/02/17 04:55:05;;;;;;;19.50;18.90;;;19.70;54.20;;;;;;5067600;28;20942;-60
2023/02/17 04:57:32;;;;;;;20.43;19.77;;;19.70;54.20;;;;;;5056680;28;20443;-60
2023/02/17 04:59:59;;;;;;;20.80;20.10;;;19.70;54.20;;;;;;5056576;28;20555;-58
2023/02/17 05:02:29;;;;;;;21.63;21.03;;;19.70;54.20;;;;;;5057036;28;20955;-58
2023/02/17 05:04:56;;;;;;;21.07;20.37;;;19.70;54.30;;;;;;5066075;28;20443;-60
2023/02/17 05:07:23;;;;;;;21.73;21.07;;;19.70;54.30;;;;;;5077128;28;20458;-59
2023/02/17 05:09:50;;;;;;;22.37;21.57;;;19.70;54.30;;;;;;5072518;28;20465;-57
2023/02/17 05:12:16;;;;;;;19.70;19.00;;;19.70;54.30;;;;;;5071372;28;20450;-56
2023/02/17 05:14:43;;;;;;;20.73;20.13;;;19.70;54.40;;;;;;5051494;28;20459;-56
2023/02/17 05:17:10;;;;;;;20.30;19.70;;;19.70;54.40;;;;;;5051669;28;20444;-59
2023/02/17 05:19:38;;;;;;;20.73;20.10;;;19.70;54.40;;;;;;5051360;28;20582;-57
2023/02/17 05:22:05;;;;;;;22.60;21.90;;;19.70;54.50;;;;;;5055816;28;20645;-59
2023/02/17 05:36:37;;;;;;;22.30;21.60;;;19.70;54.30;;;;;;5164001;27;20565;-64
2023/02/17 05:39:04;;;;;;;22.00;21.30;;;20.00;54.00;;;;;;5140273;27;20611;-64
2023/02/17 05:41:31;;;;;;;22.43;21.73;;;20.10;53.90;;;;;;5129860;28;20843;-64
2023/02/17 05:43:58;;;;;;;22.07;21.23;;;20.10;53.90;;;;;;5129583;28;20519;-64
2023/02/17 05:46:24;;;;;;;21.90;21.20;;;20.00;53.90;;;;;;5128691;28;20539;-64
2023/02/17 05:48:51;;;;;;;21.20;20.60;;;20.00;54.10;;;;;;5109649;28;20473;-64
2023/02/17 05:51:18;;;;;;;20.53;19.93;;;20.00;54.20;;;;;;5109230;28;20533;-64
2023/02/17 05:53:46;;;;;;;21.03;20.43;;;20.00;54.30;;;;;;5108945;28;20524;-62
2023/02/17 05:56:13;;;;;;;21.70;21.00;;;20.00;54.30;;;;;;5110289;28;20545;-65
2023/02/17 05:58:40;;;;;;;22.33;21.50;;;20.00;54.40;;;;;;5132335;28;20487;-64
2023/02/17 06:01:08;;;;;;;26.40;25.50;;;20.00;54.40;;;;;;5129567;28;20863;-65
2023/02/17 06:03:35;;;;;;;24.13;23.37;;;20.00;54.80;;;;;;5129273;28;20441;-65
2023/02/17 06:06:01;;;;;;;24.00;23.30;;;19.90;54.60;;;;;;5129057;28;20480;-66
2023/02/17 06:08:28;;;;;;;22.10;21.30;;;20.00;54.50;;;;;;5111603;28;20446;-66
2023/02/17 06:10:57;;;;;;;22.23;20.83;;;20.00;54.40;;;;;;5108748;28;20446;-67
2023/02/17 06:13:24;;;;;;;23.10;21.80;;;20.00;54.60;;;;;;5108698;28;20936;-66
2023/02/17 06:15:51;;;;;;;24.43;22.83;;;20.00;54.90;;;;;;5108411;28;20442;-66
2023/02/17 06:18:17;;;;;;;26.30;24.50;;;20.00;55.40;;;;;;5123840;28;20440;-65
2023/02/17 06:20:44;;;;;;;25.37;23.60;;;20.10;56.00;;;;;;5129056;28;20932;-65
2023/02/17 06:23:11;;;;;;;24.33;23.00;;;20.00;56.70;;;;;;5117576;28;20537;-64
2023/02/17 06:25:38;;;;;;;24.20;22.60;;;20.10;59.00;;;;;;5107026;28;20568;-64
2023/02/17 06:28:06;;;;;;;24.23;22.77;;;20.20;60.60;;;;;;5108162;28;20477;-64
2023/02/17 06:30:33;;;;;;;23.93;22.37;;;20.20;61.10;;;;;;5108364;28;20529;-64
2023/02/17 06:33:00;;;;;;;24.00;22.60;;;20.30;60.90;;;;;;5108134;28;20477;-64
2023/02/17 06:35:27;;;;;;;29.00;26.50;;;20.30;60.30;;;;;;5050768;28;20484;-64
2023/02/17 06:37:54;;;;;;;24.30;22.40;;;20.40;59.90;;;;;;4991497;28;20470;-63
2023/02/17 06:40:21;;;;;;;24.90;23.13;;;20.40;59.50;;;;;;4991939;28;20529;-63
2023/02/17 06:42:47;;;;;;;22.40;21.30;;;20.50;59.20;;;;;;4991726;28;21025;-59
2023/02/17 06:45:16;;;;;;;22.67;21.77;;;20.40;58.70;;;;;;4991708;28;20577;-64
2023/02/17 06:47:43;;;;;;;23.50;22.50;;;20.50;58.40;;;;;;4992270;28;20477;-64
2023/02/17 06:50:10;;;;;;;23.20;22.00;;;20.50;58.00;;;;;;4991631;28;20447;-64
2023/02/17 06:52:38;;;;;;;23.57;22.43;;;20.60;57.90;;;;;;4991652;28;20447;-64
2023/02/17 06:55:05;;;;;;;22.90;21.77;;;20.60;57.60;;;;;;4991620;28;20463;-64
2023/02/17 06:57:32;;;;;;;22.27;21.37;;;20.60;57.40;;;;;;4991381;28;21022;-64
2023/02/17 06:59:58;;;;;;;22.33;21.43;;;20.60;57.20;;;;;;4991599;28;20442;-63
2023/02/17 07:02:27;;;;;;;21.83;20.80;;;20.70;57.00;;;;;;4991451;28;20451;-65
2023/02/17 07:04:53;;;;;;;23.67;22.40;;;20.70;56.80;;;;;;4991417;28;20506;-64
2023/02/17 07:07:20;;;;;;;22.77;21.80;;;20.70;56.60;;;;;;4991215;28;20470;-61
2023/02/17 07:09:47;;;;;;;23.13;22.23;;;20.80;56.50;;;;;;4991534;28;20534;-61
2023/02/17 07:12:14;;;;;;;21.83;20.93;;;20.80;56.30;;;;;;4991471;28;20542;-59
2023/02/17 07:14:41;;;;;;;23.20;22.40;;;20.80;56.10;;;;;;4991272;28;20439;-62
2023/02/17 07:17:07;;;;;;;22.50;21.30;;;20.90;56.00;;;;;;4991064;28;20558;-59
2023/02/17 07:19:36;;;;;;;22.20;21.13;;;20.90;55.80;;;;;;4991288;28;20451;-61
2023/02/17 07:22:02;;;;;;;21.50;20.50;;;20.90;55.60;;;;;;4991209;28;20541;-64
2023/02/17 07:24:29;;;;;;;20.50;19.70;;;20.90;55.50;;;;;;4991005;28;20447;-62
2023/02/17 07:26:56;;;;;;;22.20;20.80;;;20.90;55.30;;;;;;4990877;28;20546;-62
2023/02/17 07:29:23;;;;;;;21.30;20.50;;;21.00;55.20;;;;;;4991129;28;20538;-62
2023/02/17 07:31:50;;;;;;;20.90;20.10;;;21.00;55.10;;;;;;4991202;28;20968;-62
2023/02/17 07:34:16;;;;;;;21.70;20.60;;;21.00;55.00;;;;;;4990885;28;20538;-62
2023/02/17 07:36:45;;;;;;;21.33;20.10;;;21.00;54.90;;;;;;4990757;28;21025;-61
2023/02/17 07:39:11;;;;;;;21.67;20.87;;;21.00;54.70;;;;;;4990942;28;20446;-61
2023/02/17 07:41:38;;;;;;;20.17;19.47;;;21.10;54.60;;;;;;4990844;28;20538;-58
2023/02/17 07:44:05;;;;;;;20.77;19.97;;;21.10;54.50;;;;;;4990971;28;20534;-59
2023/02/17 07:46:32;;;;;;;21.07;20.17;;;21.10;54.50;;;;;;4990496;28;20928;-59
2023/02/17 07:48:59;;;;;;;21.00;20.20;;;21.10;54.30;;;;;;4989615;28;20446;-59
2023/02/17 07:51:26;;;;;;;20.77;19.93;;;21.10;54.30;;;;;;4990747;28;20443;-61
2023/02/17 07:53:55;;;;;;;21.60;20.70;;;21.10;54.20;;;;;;4990792;28;20447;-61
2023/02/17 07:56:22;;;;;;;19.80;19.20;;;21.10;54.10;;;;;;4990441;28;20463;-61
2023/02/17 07:58:50;;;;;;;21.27;20.57;;;21.10;54.00;;;;;;4990689;28;20871;-59
2023/02/17 08:01:19;;;;;;;22.40;21.50;;;21.10;54.00;;;;;;4990640;28;20453;-60
2023/02/17 08:03:47;;;;;;;21.37;20.67;;;21.10;53.90;;;;;;4990528;28;20810;-59
2023/02/17 08:06:15;;;;;;;21.73;21.03;;;21.20;53.90;;;;;;4990279;28;20726;-59
2023/02/17 08:14:14;;;;;;;21.97;20.80;;;21.20;53.80;;;;;;4990636;28;20426;-60
2023/02/17 08:16:41;;;;;;;21.17;20.37;;;21.20;53.80;;;;;;4990213;28;20467;-64
2023/02/17 08:19:08;;;;;;;22.07;21.30;;;21.20;53.70;;;;;;4990398;28;20450;-61
2023/02/17 08:21:35;;;;;;;21.60;20.90;;;21.20;53.70;;;;;;4990288;28;20443;-62
2023/02/17 08:24:01;;;;;;;21.63;20.67;;;21.20;53.70;;;;;;4990235;28;20542;-61
2023/02/17 08:26:30;;;;;;;20.40;19.80;;;21.30;53.70;;;;;;4989884;28;20934;-60
2023/02/17 08:28:57;;;;;;;22.10;21.20;;;21.30;53.60;;;;;;4990161;28;20474;-63
2023/02/17 08:31:26;;;;;;;21.47;20.77;;;21.30;53.50;;;;;;4990255;28;20625;-60
2023/02/17 08:33:54;;;;;;;22.00;21.23;;;21.30;53.50;;;;;;4990144;28;20449;-60
2023/02/17 08:36:23;;;;;;;23.97;23.07;;;21.30;53.40;;;;;;4989683;28;20554;-60
2023/02/17 08:38:51;;;;;;;22.07;21.37;;;21.40;53.40;;;;;;4990167;28;20872;-61
2023/02/17 08:41:20;;;;;;;21.70;20.90;;;21.40;53.30;;;;;;4990265;28;20820;-61
2023/02/17 08:43:49;;;;;;;22.33;21.43;;;21.40;53.30;;;;;;4990016;28;20453;-61
2023/02/17 08:46:17;;;;;;;22.30;21.50;;;21.40;53.20;;;;;;4989587;28;20573;-61
2023/02/17 08:48:43;;;;;;;23.13;22.03;;;21.40;53.20;;;;;;4989945;28;20494;-63
2023/02/17 08:51:13;;;;;;;21.97;21.27;;;21.40;53.10;;;;;;4989863;28;20449;-63
2023/02/17 08:53:40;;;;;;;21.97;21.27;;;21.40;53.00;;;;;;4989793;28;20447;-64
2023/02/17 08:56:07;;;;;;;20.87;20.27;;;21.40;53.00;;;;;;4989556;28;20458;-62
2023/02/17 08:58:34;;;;;;;22.33;21.53;;;21.40;52.90;;;;;;4989601;28;20450;-62
2023/02/17 09:01:03;;;;;;;21.00;20.30;;;21.40;52.90;;;;;;4989644;28;20534;-62
2023/02/17 09:03:30;;;;;;;20.40;19.80;;;21.40;52.90;;;;;;4989733;28;20447;-63
2023/02/17 09:05:58;;;;;;;21.57;20.87;;;21.40;52.80;;;;;;4989393;28;20493;-66
2023/02/17 09:08:25;;;;;;;22.20;21.40;;;21.40;52.80;;;;;;4989733;28;20971;-61
2023/02/17 09:10:52;;;;;;;22.50;21.70;;;21.40;52.80;;;;;;4989620;28;20455;-65
2023/02/17 09:13:19;;;;;;;22.13;21.40;;;21.40;52.80;;;;;;4989590;28;20497;-63
2023/02/17 09:15:46;;;;;;;22.00;21.20;;;21.40;52.70;;;;;;4989294;28;20518;-63
2023/02/17 09:18:15;;;;;;;22.93;22.23;;;21.40;52.70;;;;;;4989557;28;20447;-64
2023/02/17 09:20:42;;;;;;;20.30;19.70;;;21.40;52.70;;;;;;4989475;28;20451;-62
2023/02/17 09:23:09;;;;;;;22.60;21.90;;;21.40;52.60;;;;;;4989463;28;20534;-62
2023/02/17 09:25:35;;;;;;;20.87;20.27;;;21.40;52.70;;;;;;4989203;28;20551;-62
2023/02/17 09:28:02;;;;;;;21.40;20.77;;;21.40;52.60;;;;;;4989325;28;20506;-60
2023/02/17 09:30:29;;;;;;;23.10;22.30;;;21.40;52.60;;;;;;4989376;28;20538;-62
2023/02/17 09:32:57;;;;;;;23.70;22.90;;;21.50;52.70;;;;;;4989521;28;20459;-61
2023/02/17 09:35:26;;;;;;;21.73;20.93;;;21.50;52.70;;;;;;4988999;28;20964;-62
2023/02/17 09:37:53;;;;;;;21.37;20.77;;;21.50;52.70;;;;;;4989288;28;20903;-64
2023/02/17 09:40:22;;;;;;;22.90;22.20;;;21.50;52.70;;;;;;4989314;28;20453;-65
2023/02/17 09:42:49;;;;;;;21.80;21.20;;;21.50;52.70;;;;;;4989100;28;20443;-60
2023/02/17 09:45:20;;;;;;;22.53;21.83;;;21.50;52.70;;;;;;4989089;28;20934;-63
2023/02/17 09:47:50;;;;;;;22.17;21.47;;;21.50;52.70;;;;;;4989103;28;20471;-64
2023/02/17 09:50:21;;;;;;;21.50;20.90;;;21.50;52.70;;;;;;4989046;28;20451;-66
2023/02/17 09:52:55;;;;;;;21.60;21.00;;;21.60;52.80;;;;;;4989174;28;20453;-65
2023/02/17 09:55:25;;;;;;;23.67;22.87;;;21.60;52.80;;;;;;4989054;28;20457;-64
2023/02/17 09:57:57;;;;;;;22.40;21.70;;;21.60;52.70;;;;;;4988818;28;20467;-64
2023/02/17 10:00:29;;;;;;;22.60;21.90;;;21.60;52.70;;;;;;4989171;28;20450;-65
2023/02/17 10:03:02;;;;;;;23.50;22.70;;;21.60;52.60;;;;;;4989138;28;20447;-64
2023/02/17 10:05:34;;;;;;;22.37;21.57;;;21.60;52.60;;;;;;4988689;28;20483;-62
2023/02/17 10:08:08;;;;;;;22.30;21.53;;;21.60;52.60;;;;;;4988944;28;20469;-64
2023/02/17 10:10:44;;;;;;;23.00;22.30;;;21.60;52.50;;;;;;4989091;28;20451;-64
2023/02/17 10:13:13;;;;;;;22.87;22.17;;;21.60;52.50;;;;;;4992374;28;20450;-63
2023/02/17 10:15:42;;;;;;;22.47;21.83;;;21.70;52.50;;;;;;4991987;28;20993;-65
2023/02/17 10:18:16;;;;;;;22.57;21.87;;;21.60;52.50;;;;;;4992041;28;20450;-62
2023/02/17 10:20:47;;;;;;;22.30;21.60;;;21.70;52.50;;;;;;4992174;28;20461;-65
2023/02/17 10:23:19;;;;;;;23.00;22.23;;;21.70;52.50;;;;;;4992347;28;20812;-65
2023/02/17 10:26:04;;;;;;;23.23;22.53;;;21.70;52.40;;;;;;4991773;28;20826;-65
2023/02/17 10:28:43;;;;;;;22.50;21.80;;;21.70;52.40;;;;;;4992126;28;20455;-66
2023/02/17 10:31:15;;;;;;;23.10;22.40;;;21.70;52.40;;;;;;4992021;28;20967;-63
2023/02/17 10:33:52;;;;;;;22.63;21.93;;;21.70;52.50;;;;;;4991981;28;20946;-64
2023/02/17 10:36:25;;;;;;;23.10;22.40;;;21.70;52.40;;;;;;4991539;28;20470;-65
2023/02/17 10:38:59;;;;;;;22.23;21.53;;;21.60;52.30;;;;;;4992016;28;21010;-64
2023/02/17 10:41:32;;;;;;;22.30;21.60;;;21.60;52.30;;;;;;4991950;28;20550;-67
2023/02/17 10:44:00;;;;;;;21.87;21.17;;;21.70;52.40;;;;;;4991983;28;20453;-65
2023/02/17 10:46:29;;;;;;;21.77;21.07;;;21.60;52.30;;;;;;4991455;28;20486;-64
2023/02/17 10:48:57;;;;;;;23.30;22.60;;;21.60;52.30;;;;;;4991570;28;20466;-63
2023/02/17 10:51:27;;;;;;;22.57;21.87;;;21.60;52.30;;;;;;4991673;28;20538;-64
2023/02/17 10:54:00;;;;;;;23.20;22.50;;;21.70;52.40;;;;;;4991512;28;20960;-64
2023/02/17 10:56:33;;;;;;;22.53;21.83;;;21.60;52.30;;;;;;4991379;28;20810;-66
2023/02/17 10:59:05;;;;;;;22.63;21.93;;;21.70;52.40;;;;;;4991582;28;20443;-67
2023/02/17 11:01:33;;;;;;;22.77;21.97;;;21.70;52.40;;;;;;4991554;28;20451;-64
2023/02/17 11:04:02;;;;;;;22.10;21.40;;;21.70;52.50;;;;;;4991507;28;20454;-66
2023/02/17 11:06:30;;;;;;;23.77;22.97;;;21.70;52.50;;;;;;4991264;28;20494;-65
2023/02/17 11:09:01;;;;;;;20.97;20.27;;;21.70;52.50;;;;;;4991411;28;20450;-66
2023/02/17 11:11:30;;;;;;;22.80;22.10;;;21.70;52.60;;;;;;4991501;28;20455;-65
2023/02/17 11:14:03;;;;;;;21.70;21.00;;;21.80;52.60;;;;;;4991306;28;20447;-64
2023/02/17 11:16:36;;;;;;;23.10;22.40;;;21.80;52.70;;;;;;4991074;28;20471;-67
2023/02/17 11:19:04;;;;;;;23.17;22.47;;;21.80;52.60;;;;;;4991313;28;20455;-66
2023/02/17 11:21:32;;;;;;;23.23;22.53;;;21.80;52.60;;;;;;4991262;28;20541;-66
2023/02/17 11:24:03;;;;;;;22.17;21.33;;;21.80;52.60;;;;;;4990967;28;20821;-65
2023/02/17 11:26:32;;;;;;;22.00;21.30;;;21.80;52.60;;;;;;4990842;28;20487;-66
2023/02/17 11:29:09;;;;;;;22.60;21.90;;;21.80;52.60;;;;;;4991219;28;20477;-66
2023/02/17 11:31:37;;;;;;;22.10;21.40;;;21.80;52.50;;;;;;4991047;28;20929;-66
2023/02/17 11:34:14;;;;;;;22.43;21.63;;;21.90;52.60;;;;;;4991139;28;20450;-65
2023/02/17 11:36:45;;;;;;;22.40;21.70;;;21.90;52.60;;;;;;4971411;28;20462;-66
2023/02/17 11:39:21;;;;;;;23.43;22.73;;;21.90;52.50;;;;;;4971528;28;20961;-66
2023/02/17 11:41:48;;;;;;;22.20;21.60;;;21.90;52.50;;;;;;4971471;28;20539;-66
2023/02/17 11:44:23;;;;;;;23.40;22.70;;;21.90;52.50;;;;;;4971530;28;20810;-66
2023/02/17 11:47:02;;;;;;;23.20;22.50;;;21.90;52.50;;;;;;4971412;28;20517;-66
2023/02/17 11:50:04;;;;;;;22.90;22.03;;;21.90;52.40;;;;;;4971403;28;20943;-66
2023/02/17 11:52:45;;;;;;;22.40;21.70;;;21.90;52.40;;;;;;4971299;28;20443;-66
2023/02/17 11:55:22;;;;;;;22.90;22.20;;;21.90;52.40;;;;;;4971163;28;20443;-65
2023/02/17 11:58:02;;;;;;;22.70;22.00;;;21.90;52.50;;;;;;4971047;28;20986;-66
2023/02/17 12:00:38;;;;;;;24.90;24.10;;;21.90;52.40;;;;;;4971173;28;20442;-67
2023/02/17 12:03:42;;;;;;;24.20;23.50;;;21.90;52.40;;;;;;4971157;28;20444;-66
2023/02/17 12:06:14;;;;;;;22.77;22.07;;;21.90;52.40;;;;;;4987148;28;20486;-66
2023/02/17 12:08:59;;;;;;;23.23;22.47;;;21.90;52.40;;;;;;4971103;28;20454;-64
2023/02/17 12:11:36;;;;;;;21.87;21.23;;;21.90;52.40;;;;;;4971354;28;20471;-65
2023/02/17 12:14:15;;;;;;;22.17;21.47;;;21.90;52.50;;;;;;4971187;28;20455;-67
2023/02/17 12:16:49;;;;;;;23.73;23.03;;;21.90;52.50;;;;;;4970876;28;20468;-67
2023/02/17 12:19:40;;;;;;;22.03;21.37;;;21.90;52.50;;;;;;4971191;28;20943;-67
2023/02/17 12:22:17;;;;;;;22.70;22.00;;;21.90;52.50;;;;;;4971068;28;20466;-66
2023/02/17 12:25:09;;;;;;;22.37;21.73;;;21.80;52.50;;;;;;4970914;28;20440;-66
2023/02/17 12:27:49;;;;;;;22.80;22.10;;;21.90;52.60;;;;;;4972552;28;20494;-67
2023/02/17 12:30:27;;;;;;;22.10;21.40;;;21.90;52.60;;;;;;4970928;28;20455;-66
2023/02/17 12:33:09;;;;;;;23.20;22.50;;;21.90;52.70;;;;;;4970828;28;20451;-67
2023/02/17 12:35:44;;;;;;;22.70;22.00;;;21.90;52.70;;;;;;4981762;28;20473;-65
2023/02/17 12:38:14;;;;;;;25.17;24.33;;;21.90;52.70;;;;;;4989962;28;20442;-65
2023/02/17 12:40:47;;;;;;;25.30;24.40;;;21.90;52.70;;;;;;4990293;28;20443;-65
2023/02/17 12:43:24;;;;;;;23.50;22.70;;;21.90;52.70;;;;;;4990070;28;20447;-64
2023/02/17 12:45:52;;;;;;;25.07;24.27;;;22.00;52.80;;;;;;4989774;28;20465;-66
2023/02/17 12:48:25;;;;;;;23.63;22.93;;;22.00;52.80;;;;;;4989907;28;20850;-66
2023/02/17 12:50:58;;;;;;;23.63;22.93;;;22.00;52.80;;;;;;4990087;28;20458;-66
2023/02/17 12:53:36;;;;;;;24.30;23.50;;;22.00;52.80;;;;;;4990150;28;20454;-67
2023/02/17 12:56:07;;;;;;;22.67;21.97;;;22.00;52.80;;;;;;4989864;28;20950;-67
2023/02/17 12:58:36;;;;;;;24.00;23.30;;;22.00;52.70;;;;;;4990049;28;20447;-66